createdAt,value
2017-12-12T00:01:52.260Z,21.00
2017-12-12T00:04:20.267Z,22.77
2017-12-12T00:06:47.137Z,20.60
2017-12-12T00:09:13.264Z,20.70
2017-12-12T00:11:39.696Z,21.83
2017-12-12T00:14:06.203Z,22.48
2017-12-12T00:16:32.603Z,21.08
2017-12-12T00:18:59.891Z,18.73
2017-12-12T00:21:26.950Z,20.50
2017-12-12T00:23:53.300Z,19.25
2017-12-12T00:26:19.619Z,18.10
2017-12-12T00:28:45.942Z,18.58
2017-12-12T00:31:12.295Z,19.83
2017-12-12T00:33:38.600Z,15.20
2017-12-12T00:36:04.929Z,16.77
2017-12-12T00:38:31.377Z,18.00
2017-12-12T00:40:58.472Z,15.98
2017-12-12T00:43:24.804Z,15.63
2017-12-12T00:45:51.089Z,13.60
2017-12-12T00:48:18.263Z,13.45
2017-12-12T00:50:44.580Z,14.13
2017-12-12T00:53:10.901Z,11.23
2017-12-12T00:55:38.077Z,11.20
2017-12-12T00:58:05.022Z,12.63
2017-12-12T01:00:31.168Z,11.15
2017-12-12T01:02:57.265Z,12.73
2017-12-12T01:05:23.376Z,11.12
2017-12-12T01:07:50.308Z,11.95
2017-12-12T01:10:16.399Z,13.88
2017-12-12T01:12:42.493Z,13.60
2017-12-12T01:15:08.659Z,12.98
2017-12-12T01:17:34.792Z,14.35
2017-12-12T01:20:01.837Z,13.60
2017-12-12T01:22:27.940Z,13.10
2017-12-12T01:24:54.063Z,14.35
2017-12-12T01:27:20.446Z,11.85
2017-12-12T01:29:46.752Z,11.05
2017-12-12T01:32:13.094Z,13.80
2017-12-12T01:34:39.731Z,12.20
2017-12-12T01:37:06.981Z,13.15
2017-12-12T01:39:33.822Z,12.43
2017-12-12T01:42:00.074Z,13.73
2017-12-12T01:44:26.950Z,14.32
2017-12-12T01:46:53.103Z,14.55
2017-12-12T01:49:19.975Z,14.73
2017-12-12T01:51:46.224Z,14.07
2017-12-12T01:54:12.336Z,13.27
2017-12-12T01:56:38.484Z,14.45
2017-12-12T01:59:05.342Z,14.45
2017-12-12T02:01:31.521Z,12.85
2017-12-12T02:03:57.678Z,13.18
2017-12-12T02:06:23.793Z,13.38
2017-12-12T02:08:50.393Z,14.32
2017-12-12T02:11:16.734Z,12.63
2017-12-12T02:13:43.063Z,13.07
2017-12-12T02:16:10.194Z,12.63
2017-12-12T02:18:36.635Z,12.57
2017-12-12T02:21:03.049Z,12.63
2017-12-12T02:23:30.124Z,12.50
2017-12-12T02:25:56.447Z,13.62
2017-12-12T02:28:22.910Z,14.00
2017-12-12T02:30:49.279Z,12.63
2017-12-12T02:33:15.655Z,13.57
2017-12-12T02:35:42.002Z,11.93
2017-12-12T02:38:08.408Z,12.70
2017-12-12T02:40:34.763Z,13.48
2017-12-12T02:43:01.098Z,15.30
2017-12-12T02:45:28.185Z,12.30
2017-12-12T02:47:54.568Z,12.25
2017-12-12T02:50:25.145Z,12.45
2017-12-12T02:52:51.984Z,14.27
2017-12-12T02:55:18.872Z,12.65
2017-12-12T02:57:46.080Z,14.02
2017-12-12T03:00:12.494Z,14.73
2017-12-12T03:02:38.692Z,14.13
2017-12-12T03:05:04.804Z,14.15
2017-12-12T03:07:30.922Z,15.45
2017-12-12T03:09:57.136Z,15.10
2017-12-12T03:12:23.262Z,14.20
2017-12-12T03:14:49.369Z,14.52
2017-12-12T03:17:16.129Z,15.18
2017-12-12T03:19:42.242Z,15.75
2017-12-12T03:22:09.259Z,13.95
2017-12-12T03:24:35.368Z,15.20
2017-12-12T03:27:01.453Z,15.38
2017-12-12T03:29:27.613Z,15.07
2017-12-12T03:31:53.776Z,15.32
2017-12-12T03:34:19.950Z,13.02
2017-12-12T03:36:46.049Z,13.88
2017-12-12T03:39:12.894Z,11.48
2017-12-12T03:41:39.002Z,15.15
2017-12-12T03:44:05.096Z,13.75
2017-12-12T03:46:31.952Z,13.57
2017-12-12T03:48:58.804Z,11.95
2017-12-12T03:51:24.908Z,12.30
2017-12-12T03:53:51.137Z,6.70
2017-12-12T03:56:17.307Z,10.43
2017-12-12T03:58:43.688Z,12.00
2017-12-12T04:01:09.805Z,10.82
2017-12-12T04:03:36.096Z,10.45
2017-12-12T04:06:03.311Z,11.10
2017-12-12T04:08:29.600Z,10.23
2017-12-12T04:10:55.912Z,10.68
2017-12-12T04:13:23.111Z,10.60
2017-12-12T04:15:50.117Z,11.80
2017-12-12T04:18:16.212Z,13.35
2017-12-12T04:20:42.308Z,12.37
2017-12-12T04:23:08.416Z,12.00
2017-12-12T04:25:34.572Z,11.90
2017-12-12T04:28:00.722Z,12.88
2017-12-12T04:30:27.043Z,11.40
2017-12-12T04:32:53.461Z,12.13
2017-12-12T04:35:20.340Z,11.27
2017-12-12T04:37:46.452Z,11.90
2017-12-12T04:40:14.910Z,13.32
2017-12-12T04:42:41.046Z,13.02
2017-12-12T04:45:07.317Z,14.65
2017-12-12T04:47:35.756Z,14.23
2017-12-12T04:50:01.963Z,13.40
2017-12-12T04:52:28.127Z,14.07
2017-12-12T04:54:54.336Z,12.77
2017-12-12T04:57:20.544Z,13.85
2017-12-12T04:59:46.812Z,14.57
2017-12-12T05:02:12.996Z,13.18
2017-12-12T05:04:39.125Z,13.88
2017-12-12T05:07:05.964Z,13.52
2017-12-12T05:09:32.060Z,12.77
2017-12-12T05:11:58.200Z,13.00
2017-12-12T05:14:26.257Z,13.10
2017-12-12T05:16:52.363Z,12.20
2017-12-12T05:19:18.504Z,12.70
2017-12-12T05:21:44.856Z,12.85
2017-12-12T05:24:11.152Z,11.02
2017-12-12T05:26:37.508Z,13.20
2017-12-12T05:29:03.804Z,15.65
2017-12-12T05:31:30.112Z,16.27
2017-12-12T05:33:56.475Z,18.23
2017-12-12T05:36:22.766Z,16.58
2017-12-12T05:38:49.808Z,17.10
2017-12-12T05:41:16.116Z,16.87
2017-12-12T05:43:42.507Z,19.20
2017-12-12T05:46:09.580Z,18.25
2017-12-12T05:48:35.912Z,18.73
2017-12-12T05:51:02.237Z,18.55
2017-12-12T05:53:28.545Z,16.75
2017-12-12T05:55:54.880Z,17.52
2017-12-12T05:58:21.236Z,17.35
2017-12-12T06:00:47.543Z,17.50
2017-12-12T06:03:14.602Z,16.20
2017-12-12T06:05:41.661Z,16.40
2017-12-12T06:08:07.988Z,16.02
2017-12-12T06:10:34.353Z,15.20
2017-12-12T06:13:01.454Z,14.43
2017-12-12T06:15:27.780Z,14.40
2017-12-12T06:17:54.261Z,13.90
2017-12-12T06:20:20.653Z,14.50
2017-12-12T06:22:46.977Z,15.68
2017-12-12T06:25:13.310Z,14.55
2017-12-12T06:27:39.661Z,15.18
2017-12-12T06:30:06.052Z,14.65
2017-12-12T06:32:32.376Z,16.08
2017-12-12T06:34:58.689Z,14.90
2017-12-12T06:37:25.041Z,15.57
2017-12-12T06:39:51.430Z,15.85
2017-12-12T06:42:17.797Z,14.68
2017-12-12T06:44:44.179Z,14.43
2017-12-12T06:47:10.496Z,17.25
2017-12-12T06:49:36.864Z,15.68
2017-12-12T06:52:03.926Z,17.20
2017-12-12T06:54:30.977Z,17.12
2017-12-12T06:56:57.368Z,17.92
2017-12-12T06:59:23.709Z,17.95
2017-12-12T07:01:50.033Z,17.25
2017-12-12T07:04:17.097Z,17.95
2017-12-12T07:06:43.655Z,12.37
2017-12-12T07:09:10.021Z,17.52
2017-12-12T07:11:36.402Z,16.90
2017-12-12T07:16:34.024Z,18.60
2017-12-12T07:19:00.209Z,15.98
2017-12-12T07:21:26.596Z,15.02
2017-12-12T07:23:53.085Z,16.52
2017-12-12T07:26:20.294Z,14.90
2017-12-12T07:28:46.560Z,17.35
2017-12-12T07:31:12.884Z,16.83
2017-12-12T07:33:39.226Z,17.05
2017-12-12T07:36:06.265Z,17.75
2017-12-12T07:38:33.317Z,14.85
2017-12-12T07:41:00.395Z,19.75
2017-12-12T07:43:27.245Z,19.33
2017-12-12T07:45:53.348Z,20.70
2017-12-12T07:48:19.456Z,19.55
2017-12-12T07:50:47.711Z,20.75
2017-12-12T07:53:13.883Z,11.27
2017-12-12T07:55:41.222Z,18.80
2017-12-12T07:58:07.642Z,17.52
2017-12-12T08:00:33.982Z,19.08
2017-12-12T08:03:00.297Z,18.02
2017-12-12T08:05:26.632Z,18.75
2017-12-12T08:07:53.007Z,16.02
2017-12-12T08:10:19.462Z,17.20
2017-12-12T08:12:46.594Z,16.98
2017-12-12T08:15:13.704Z,17.65
2017-12-12T08:17:40.123Z,18.27
2017-12-12T08:20:06.509Z,17.67
2017-12-12T08:22:32.828Z,16.67
2017-12-12T08:24:59.132Z,17.90
2017-12-12T08:27:26.182Z,18.45
2017-12-12T08:29:52.494Z,19.23
2017-12-12T08:32:20.274Z,18.25
2017-12-12T08:34:46.603Z,18.67
2017-12-12T08:37:12.928Z,18.95
2017-12-12T08:39:39.263Z,11.12
2017-12-12T08:42:05.567Z,16.80
2017-12-12T08:44:31.930Z,17.30
2017-12-12T08:46:58.276Z,12.43
2017-12-12T08:49:27.742Z,16.12
2017-12-12T08:51:54.709Z,18.48
2017-12-12T08:54:20.832Z,17.52
2017-12-12T08:56:46.927Z,18.92
2017-12-12T08:59:13.289Z,18.42
2017-12-12T09:01:39.636Z,12.45
2017-12-12T09:04:05.951Z,14.70
2017-12-12T09:06:32.995Z,18.05
2017-12-12T09:09:02.539Z,17.60
2017-12-12T09:11:28.922Z,15.02
2017-12-12T09:13:55.222Z,15.20
2017-12-12T09:16:21.504Z,17.70
2017-12-12T09:18:47.811Z,17.50
2017-12-12T09:21:14.877Z,16.37
2017-12-12T09:23:41.186Z,14.77
2017-12-12T09:26:07.575Z,15.10
2017-12-12T09:28:40.096Z,14.45
2017-12-12T09:31:06.197Z,13.60
2017-12-12T09:33:32.302Z,14.63
2017-12-12T09:35:59.145Z,15.27
2017-12-12T09:38:25.295Z,16.62
2017-12-12T09:40:51.471Z,15.55
2017-12-12T09:43:18.325Z,16.67
2017-12-12T09:45:44.429Z,16.33
2017-12-12T09:48:12.765Z,16.17
2017-12-12T09:50:39.087Z,15.20
2017-12-12T09:53:05.481Z,14.25
2017-12-12T09:55:31.792Z,17.67
2017-12-12T09:57:58.860Z,17.08
2017-12-12T10:00:25.181Z,16.95
2017-12-12T10:05:25.459Z,17.80
2017-12-12T10:07:52.325Z,15.80
2017-12-12T10:10:18.432Z,18.73
2017-12-12T10:12:44.521Z,12.55
2017-12-12T10:15:10.628Z,17.00
2017-12-12T10:20:09.664Z,18.83
2017-12-12T10:22:35.801Z,17.10
2017-12-12T10:25:01.907Z,15.70
2017-12-12T10:27:28.788Z,19.40
2017-12-12T10:29:54.928Z,18.45
2017-12-12T10:32:21.019Z,18.60
2017-12-12T10:34:47.123Z,17.55
2017-12-12T10:37:16.161Z,15.88
2017-12-12T10:39:42.368Z,18.73
2017-12-12T10:42:08.607Z,18.10
2017-12-12T10:44:35.475Z,16.05
2017-12-12T10:47:01.571Z,16.17
2017-12-12T10:49:27.708Z,16.15
2017-12-12T10:51:54.099Z,16.50
2017-12-12T10:54:25.192Z,18.00
2017-12-12T10:56:51.474Z,17.55
2017-12-12T10:59:17.680Z,17.42
2017-12-12T11:01:43.810Z,14.70
2017-12-12T11:04:10.948Z,14.85
2017-12-12T11:06:37.270Z,8.95
2017-12-12T11:09:04.364Z,14.05
2017-12-12T11:11:30.543Z,12.90
2017-12-12T11:14:03.409Z,15.65
2017-12-12T11:16:29.593Z,14.95
2017-12-12T11:18:55.720Z,14.50
2017-12-12T11:21:22.594Z,13.62
2017-12-12T11:23:48.819Z,15.23
2017-12-12T11:26:14.979Z,14.57
2017-12-12T11:28:45.511Z,16.00
2017-12-12T11:31:11.698Z,13.00
2017-12-12T11:33:37.819Z,16.98
2017-12-12T11:36:03.959Z,10.50
2017-12-12T11:38:30.093Z,17.50
2017-12-12T11:40:56.196Z,16.37
2017-12-12T11:43:22.305Z,12.95
2017-12-12T11:45:48.408Z,17.85
2017-12-12T11:48:20.833Z,18.55
2017-12-12T11:50:47.021Z,16.75
2017-12-12T11:53:13.140Z,18.05
2017-12-12T11:55:39.455Z,15.73
2017-12-12T11:58:05.580Z,11.63
2017-12-12T12:00:32.441Z,13.40
2017-12-12T12:02:58.561Z,17.67
2017-12-12T12:05:29.984Z,16.80
2017-12-12T12:07:56.108Z,17.80
2017-12-12T12:10:22.333Z,16.62
2017-12-12T12:12:49.205Z,15.80
2017-12-12T12:15:15.303Z,17.73
2017-12-12T12:17:41.423Z,16.45
2017-12-12T12:20:08.290Z,16.05
2017-12-12T12:22:34.431Z,14.52
2017-12-12T12:25:04.027Z,14.57
2017-12-12T12:27:30.144Z,14.70
2017-12-12T12:29:57.250Z,14.00
2017-12-12T12:32:23.382Z,15.05
2017-12-12T12:34:49.532Z,15.45
2017-12-12T12:37:15.647Z,13.57
2017-12-12T12:39:41.903Z,14.65
2017-12-12T12:42:14.480Z,15.68
2017-12-12T12:44:40.625Z,14.32
2017-12-12T12:47:06.743Z,14.18
2017-12-12T12:49:33.616Z,12.93
2017-12-12T12:52:00.469Z,15.25
2017-12-12T12:54:26.830Z,13.15
2017-12-12T12:56:52.961Z,14.48
2017-12-12T12:59:19.242Z,14.45
2017-12-12T13:01:50.498Z,13.80
2017-12-12T13:04:16.928Z,13.45
2017-12-12T13:06:43.078Z,13.05
2017-12-12T13:09:10.009Z,12.77
2017-12-12T13:11:36.349Z,13.80
2017-12-12T13:14:02.465Z,13.20
2017-12-12T13:16:33.839Z,12.77
2017-12-12T13:19:00.707Z,11.88
2017-12-12T13:21:26.843Z,12.55
2017-12-12T13:23:52.958Z,13.93
2017-12-12T13:26:19.191Z,12.60
2017-12-12T13:28:46.156Z,14.23
2017-12-12T13:31:12.364Z,14.00
2017-12-12T13:33:39.581Z,14.57
2017-12-12T13:36:05.762Z,14.85
2017-12-12T13:38:31.967Z,14.65
2017-12-12T13:40:58.064Z,14.05
2017-12-12T13:43:24.168Z,12.63
2017-12-12T13:45:51.083Z,11.45
2017-12-12T13:48:17.925Z,11.25
2017-12-12T13:50:47.381Z,13.88
2017-12-12T13:53:13.475Z,12.85
2017-12-12T13:55:39.753Z,13.32
2017-12-12T13:58:06.083Z,14.00
2017-12-12T14:00:32.366Z,14.02
2017-12-12T14:02:58.663Z,13.73
2017-12-12T14:05:25.837Z,13.75
2017-12-12T14:07:52.191Z,13.10
2017-12-12T14:10:24.047Z,12.43
2017-12-12T14:12:54.259Z,12.60
2017-12-12T14:15:21.121Z,11.75
2017-12-12T14:17:47.534Z,12.15
2017-12-12T14:20:13.927Z,12.55
2017-12-12T14:22:40.071Z,11.75
2017-12-12T14:25:09.668Z,11.30
2017-12-12T14:27:35.762Z,12.13
2017-12-12T14:30:01.993Z,11.60
2017-12-12T14:32:28.145Z,11.65
2017-12-12T14:34:54.316Z,10.95
2017-12-12T14:37:21.210Z,10.50
2017-12-12T14:39:47.316Z,11.48
2017-12-12T14:42:16.560Z,11.65
2017-12-12T14:44:42.673Z,11.82
2017-12-12T14:47:08.808Z,11.40
2017-12-12T14:49:35.672Z,10.63
2017-12-12T14:52:01.772Z,10.90
2017-12-12T14:54:27.982Z,9.98
2017-12-12T14:56:54.080Z,10.88
2017-12-12T14:59:23.565Z,11.12
2017-12-12T15:01:49.703Z,12.15
2017-12-12T15:04:15.824Z,13.07
2017-12-12T15:06:41.916Z,12.68
2017-12-12T15:09:08.216Z,11.77
2017-12-12T15:11:34.316Z,12.60
2017-12-12T15:14:00.720Z,11.85
2017-12-12T15:16:28.952Z,14.02
2017-12-12T15:18:55.346Z,12.20
2017-12-12T15:21:21.658Z,12.48
2017-12-12T15:23:48.000Z,12.82
2017-12-12T15:26:15.071Z,13.05
2017-12-12T15:28:41.441Z,12.73
2017-12-12T15:31:08.730Z,13.93
2017-12-12T15:33:40.036Z,13.52
2017-12-12T15:36:07.120Z,13.95
2017-12-12T15:38:33.291Z,12.02
2017-12-12T15:40:59.396Z,13.05
2017-12-12T15:43:26.325Z,12.25
2017-12-12T15:45:53.209Z,12.30
2017-12-12T15:48:19.344Z,11.98
2017-12-12T15:50:51.720Z,11.60
2017-12-12T15:53:17.861Z,11.85
2017-12-12T15:55:44.013Z,11.05
2017-12-12T15:58:10.112Z,10.73
2017-12-12T16:00:36.224Z,11.65
2017-12-12T16:03:02.344Z,11.60
2017-12-12T16:05:28.445Z,12.63
2017-12-12T16:07:54.561Z,13.55
2017-12-12T16:10:24.483Z,11.32
2017-12-12T16:12:50.907Z,11.98
2017-12-12T16:15:18.144Z,14.32
2017-12-12T16:17:45.309Z,14.48
2017-12-12T16:20:11.498Z,13.45
2017-12-12T16:25:35.515Z,13.60
2017-12-12T16:28:01.872Z,14.70
2017-12-12T16:30:34.124Z,13.65
2017-12-12T16:33:00.485Z,15.40
2017-12-12T16:35:26.835Z,13.07
2017-12-12T16:37:53.186Z,12.80
2017-12-12T16:40:19.540Z,13.18
2017-12-12T16:42:46.655Z,14.30
2017-12-12T16:45:13.738Z,12.65
2017-12-12T16:47:46.114Z,13.05
2017-12-12T16:50:12.256Z,11.95
2017-12-12T16:52:39.311Z,11.63
2017-12-12T16:55:05.779Z,10.18
2017-12-12T16:57:32.177Z,11.23
2017-12-12T16:59:59.609Z,12.45
2017-12-12T17:02:26.183Z,11.98
2017-12-12T17:04:58.164Z,11.98
2017-12-12T17:07:24.754Z,12.23
2017-12-12T17:09:51.045Z,11.48
2017-12-12T17:12:18.228Z,11.48
2017-12-12T17:14:44.480Z,12.77
2017-12-12T17:17:10.843Z,12.10
2017-12-12T17:19:37.812Z,12.57
2017-12-12T17:22:07.860Z,11.05
2017-12-12T17:24:34.068Z,12.90
2017-12-12T17:27:00.217Z,11.73
2017-12-12T17:29:26.560Z,9.35
2017-12-12T17:31:53.644Z,9.90
2017-12-12T17:34:20.072Z,10.88
2017-12-12T17:39:19.616Z,11.48
2017-12-12T17:41:45.790Z,12.15
2017-12-12T17:44:11.905Z,12.45
2017-12-12T17:46:38.212Z,12.13
2017-12-12T17:49:05.345Z,11.20
2017-12-12T17:51:31.484Z,11.07
2017-12-12T17:53:57.633Z,11.95
2017-12-12T17:56:24.119Z,12.63
2017-12-12T17:58:50.424Z,11.95
2017-12-12T18:01:16.823Z,13.30
2017-12-12T18:03:42.937Z,12.20
2017-12-12T18:06:09.589Z,12.10
2017-12-12T18:08:35.734Z,13.52
2017-12-12T18:11:01.868Z,12.68
2017-12-12T18:13:28.712Z,13.32
2017-12-12T18:15:55.237Z,13.82
2017-12-12T18:18:22.177Z,12.45
2017-12-12T18:20:48.396Z,14.32
2017-12-12T18:23:14.639Z,14.07
2017-12-12T18:25:40.749Z,14.68
2017-12-12T18:28:06.938Z,13.00
2017-12-12T18:30:33.287Z,13.15
2017-12-12T18:32:59.598Z,13.20
2017-12-12T18:35:25.958Z,12.75
2017-12-12T18:37:52.262Z,13.10
2017-12-12T18:40:18.845Z,13.60
2017-12-12T18:42:45.247Z,13.20
2017-12-12T18:45:11.600Z,12.65
2017-12-12T18:47:37.936Z,16.10
2017-12-12T18:50:04.264Z,14.25
2017-12-12T18:52:30.579Z,15.52
2017-12-12T18:54:57.117Z,16.42
2017-12-12T18:57:23.423Z,16.80
2017-12-12T18:59:49.664Z,15.15
2017-12-12T19:02:15.997Z,16.20
2017-12-12T19:04:44.763Z,15.63
2017-12-12T19:07:11.660Z,17.05
2017-12-12T19:09:37.771Z,18.58
2017-12-12T19:12:03.899Z,18.20
2017-12-12T19:14:30.014Z,20.20
2017-12-12T19:16:56.768Z,19.25
2017-12-12T19:19:24.533Z,20.23
2017-12-12T19:21:50.670Z,19.85
2017-12-12T19:24:16.793Z,20.30
2017-12-12T19:26:42.969Z,21.02
2017-12-12T19:29:09.197Z,20.15
2017-12-12T19:31:35.379Z,19.95
2017-12-12T19:34:02.241Z,18.40
2017-12-12T19:36:29.106Z,21.35
2017-12-12T19:38:55.264Z,19.70
2017-12-12T19:41:26.233Z,20.37
2017-12-12T19:43:52.350Z,19.98
2017-12-12T19:46:18.468Z,20.67
2017-12-12T19:48:44.716Z,18.50
2017-12-12T19:51:10.909Z,19.50
2017-12-12T19:53:37.076Z,20.40
2017-12-12T19:56:03.191Z,19.55
2017-12-12T19:58:29.320Z,20.23
2017-12-12T20:00:57.389Z,20.10
2017-12-12T20:03:23.481Z,21.08
2017-12-12T20:05:49.631Z,20.83
2017-12-12T20:08:15.851Z,21.20
2017-12-12T20:10:42.013Z,21.45
2017-12-12T20:13:08.172Z,22.20
2017-12-12T20:15:34.477Z,21.48
2017-12-12T20:18:00.590Z,22.65
2017-12-12T20:20:26.715Z,21.05
2017-12-12T20:22:53.026Z,21.35
2017-12-12T20:25:19.362Z,21.80
2017-12-12T20:27:45.706Z,20.25
2017-12-12T20:30:12.045Z,22.27
2017-12-12T20:32:38.153Z,22.65
2017-12-12T20:35:04.480Z,23.38
2017-12-12T20:37:30.818Z,24.10
2017-12-12T20:39:57.170Z,25.55
2017-12-12T20:42:23.483Z,24.75
2017-12-12T20:44:49.813Z,21.50
2017-12-12T20:47:16.860Z,21.23
2017-12-12T20:49:43.182Z,20.42
2017-12-12T20:52:10.328Z,21.90
2017-12-12T20:54:36.644Z,22.45
2017-12-12T20:57:03.008Z,21.55
2017-12-12T20:59:30.360Z,21.27
2017-12-12T21:01:56.665Z,20.10
2017-12-12T21:04:22.996Z,20.48
2017-12-12T21:06:49.345Z,21.48
2017-12-12T21:09:15.672Z,19.52
2017-12-12T21:11:42.044Z,18.08
2017-12-12T21:14:09.682Z,17.80
2017-12-12T21:16:36.045Z,17.60
2017-12-12T21:19:02.389Z,17.48
2017-12-12T21:21:28.685Z,18.10
2017-12-12T21:23:55.223Z,15.63
2017-12-12T21:26:21.567Z,15.88
2017-12-12T21:28:47.970Z,14.77
2017-12-12T21:31:14.298Z,14.98
2017-12-12T21:33:40.669Z,18.15
2017-12-12T21:36:07.017Z,17.73
2017-12-12T21:38:33.377Z,16.37
2017-12-12T21:40:59.763Z,16.20
2017-12-12T21:43:26.092Z,17.62
2017-12-12T21:45:52.447Z,17.10
2017-12-12T21:48:18.822Z,16.45
2017-12-12T21:50:45.142Z,16.50
2017-12-12T21:53:11.485Z,16.20
2017-12-12T21:55:37.838Z,16.30
2017-12-12T21:58:04.232Z,16.92
2017-12-12T22:00:30.580Z,16.42
2017-12-12T22:02:56.905Z,16.30
2017-12-12T22:05:23.241Z,15.27
2017-12-12T22:07:49.596Z,15.73
2017-12-12T22:10:16.538Z,14.70
2017-12-12T22:12:42.919Z,15.52
2017-12-12T22:15:09.260Z,14.93
2017-12-12T22:17:35.606Z,16.73
2017-12-12T22:20:02.741Z,15.70
2017-12-12T22:22:29.114Z,15.20
2017-12-12T22:24:55.545Z,14.32
2017-12-12T22:27:21.898Z,16.08
2017-12-12T22:29:48.232Z,16.12
2017-12-12T22:32:15.436Z,16.25
2017-12-12T22:34:41.753Z,16.08
2017-12-12T22:37:08.099Z,16.02
2017-12-12T22:39:34.491Z,18.80
2017-12-12T22:42:00.855Z,18.60
2017-12-12T22:44:27.243Z,17.65
2017-12-12T22:46:54.334Z,18.73
2017-12-12T22:49:20.712Z,19.60
2017-12-12T22:51:47.063Z,17.85
2017-12-12T22:54:14.124Z,16.50
2017-12-12T22:56:40.531Z,16.98
2017-12-12T22:59:06.865Z,17.30
2017-12-12T23:01:33.215Z,18.67
2017-12-12T23:03:59.567Z,18.67
2017-12-12T23:06:25.921Z,17.20
2017-12-12T23:08:52.241Z,16.65
2017-12-12T23:11:18.588Z,16.70
2017-12-12T23:13:45.687Z,16.33
2017-12-12T23:16:12.041Z,16.62
2017-12-12T23:18:38.391Z,15.32
2017-12-12T23:21:04.717Z,14.80
2017-12-12T23:23:31.032Z,15.90
2017-12-12T23:25:57.319Z,16.55
2017-12-12T23:28:23.624Z,14.65
2017-12-12T23:30:53.928Z,14.75
2017-12-12T23:33:20.945Z,13.93
2017-12-12T23:35:47.266Z,14.30
2017-12-12T23:38:13.595Z,13.57
2017-12-12T23:40:39.943Z,12.90
2017-12-12T23:43:06.254Z,12.70
2017-12-12T23:45:32.536Z,12.63
2017-12-12T23:47:58.846Z,11.82
2017-12-12T23:50:25.993Z,12.02
2017-12-12T23:52:58.303Z,13.25
2017-12-12T23:55:24.461Z,11.70
2017-12-12T23:57:50.582Z,12.25
